Time;durP1;ratioP1;P1;durP2;ratioP2;P2;SDS_P1;SDS_P2;PMS_P1;PMS_P2;Temp;Humidity;BMP_temperature;BMP_pressure;BME280_temperature;BME280_humidity;BME280_pressure;Samples;Min_cycle;Max_cycle;Signal;HPM_P1;HPM_P2
2023/06/11 00:00:40;;;;;;;8.73;7.80;;;21.50;85.10;;;;;;5058058;28;20465;-74
2023/06/11 00:03:26;;;;;;;8.53;7.40;;;21.50;84.70;;;;;;5059323;28;21041;-72
2023/06/11 00:06:17;;;;;;;10.03;8.30;;;21.60;81.60;;;;;;5055147;28;20525;-73
2023/06/11 00:09:03;;;;;;;8.93;8.03;;;21.70;81.60;;;;;;5060822;28;20493;-72
2023/06/11 00:11:48;;;;;;;8.07;7.20;;;21.70;80.70;;;;;;5065683;28;20513;-72
2023/06/11 00:14:33;;;;;;;8.00;7.20;;;21.80;79.20;;;;;;5066561;28;20798;-72
2023/06/11 00:17:19;;;;;;;7.67;6.87;;;21.80;78.40;;;;;;5060509;28;20566;-72
2023/06/11 00:20:11;;;;;;;9.73;8.30;;;21.70;77.80;;;;;;5061567;28;20817;-72
2023/06/11 00:22:58;;;;;;;8.63;7.50;;;21.70;78.80;;;;;;5060812;28;20468;-72
2023/06/11 00:25:43;;;;;;;8.70;6.93;;;21.80;78.50;;;;;;5069600;28;20454;-73
2023/06/11 00:28:29;;;;;;;9.07;6.90;;;21.80;75.60;;;;;;5061510;28;20451;-72
2023/06/11 00:31:15;;;;;;;9.27;7.77;;;21.90;70.50;;;;;;5059238;28;21079;-74
2023/06/11 00:34:00;;;;;;;8.07;7.27;;;21.90;73.10;;;;;;5059905;28;20588;-72
2023/06/11 00:36:46;;;;;;;11.70;7.40;;;21.90;72.00;;;;;;5060023;28;20447;-72
2023/06/11 00:39:34;;;;;;;8.00;7.20;;;21.90;71.40;;;;;;5056536;28;20455;-72
2023/06/11 00:42:20;;;;;;;6.90;6.27;;;21.90;69.60;;;;;;5058887;28;20462;-72
2023/06/11 00:45:08;;;;;;;8.07;6.73;;;21.80;69.50;;;;;;5058232;28;20477;-72
2023/06/11 00:47:53;;;;;;;8.63;6.90;;;21.90;69.70;;;;;;5059572;28;20451;-72
2023/06/11 00:50:47;;;;;;;7.50;6.67;;;21.80;70.50;;;;;;5056839;28;20455;-72
2023/06/11 00:53:32;;;;;;;9.37;6.50;;;21.80;70.30;;;;;;5060876;28;20462;-72
2023/06/11 00:56:19;;;;;;;7.30;6.60;;;21.70;71.10;;;;;;5061426;28;20949;-72
2023/06/11 00:59:06;;;;;;;8.60;7.00;;;21.60;71.90;;;;;;5059956;28;20452;-73
2023/06/11 01:01:57;;;;;;;8.23;6.43;;;21.60;72.10;;;;;;5058587;28;20463;-73
2023/06/11 01:04:43;;;;;;;8.63;6.40;;;21.50;72.40;;;;;;5060604;28;20991;-72
2023/06/11 01:07:38;;;;;;;10.90;6.90;;;21.50;72.70;;;;;;5058739;28;20447;-72
2023/06/11 01:10:27;;;;;;;7.17;6.47;;;21.50;73.40;;;;;;5057307;28;20817;-72
2023/06/11 01:13:13;;;;;;;8.20;6.33;;;21.40;73.40;;;;;;5056083;28;20607;-74
2023/06/11 01:16:04;;;;;;;8.80;6.60;;;21.40;72.00;;;;;;5055732;28;20450;-73
2023/06/11 01:18:58;;;;;;;6.87;6.17;;;21.40;71.30;;;;;;5054560;28;21060;-73
2023/06/11 01:21:50;;;;;;;6.40;5.80;;;21.40;71.00;;;;;;5055662;28;21071;-73
2023/06/11 01:24:53;;;;;;;7.83;6.73;;;21.50;70.20;;;;;;5058189;28;20474;-72
2023/06/11 01:28:00;;;;;;;7.00;5.77;;;21.50;69.40;;;;;;5058404;28;20510;-72
2023/06/11 01:30:48;;;;;;;9.73;7.43;;;21.60;70.10;;;;;;5067050;28;20442;-72
2023/06/11 01:33:35;;;;;;;8.20;7.27;;;21.60;71.00;;;;;;5060303;28;20606;-73
2023/06/11 01:36:28;;;;;;;17.83;12.50;;;21.50;71.00;;;;;;5060822;28;20483;-72
2023/06/11 01:39:14;;;;;;;9.07;7.30;;;21.40;70.20;;;;;;5061114;28;20459;-72
2023/06/11 01:41:59;;;;;;;8.00;7.20;;;21.30;71.00;;;;;;5059955;28;20955;-72
2023/06/11 01:44:46;;;;;;;6.90;6.20;;;21.20;72.00;;;;;;5058738;28;20470;-72
2023/06/11 01:47:31;;;;;;;7.20;6.30;;;21.20;73.20;;;;;;5058014;28;20427;-72
2023/06/11 01:50:18;;;;;;;7.67;6.97;;;21.10;73.70;;;;;;5059223;28;20451;-73
2023/06/11 01:53:04;;;;;;;7.07;6.37;;;21.00;73.80;;;;;;5056613;28;20545;-72
2023/06/11 01:55:50;;;;;;;8.20;6.80;;;20.90;73.70;;;;;;5054158;28;20835;-74
2023/06/11 01:58:37;;;;;;;8.77;7.40;;;20.90;73.50;;;;;;5057984;28;20530;-72
2023/06/11 02:01:24;;;;;;;10.27;7.53;;;20.90;73.60;;;;;;5059011;28;20447;-72
2023/06/11 02:04:09;;;;;;;9.10;7.00;;;20.90;73.10;;;;;;5057186;28;21315;-72
2023/06/11 02:06:55;;;;;;;7.73;6.60;;;21.00;72.20;;;;;;5056735;28;20971;-73
2023/06/11 02:09:41;;;;;;;8.77;7.87;;;21.10;72.10;;;;;;5055381;28;20597;-72
2023/06/11 02:12:26;;;;;;;8.40;6.33;;;21.20;71.30;;;;;;5058234;28;20971;-72
2023/06/11 02:15:13;;;;;;;10.10;7.10;;;21.20;70.90;;;;;;5055710;28;20517;-73
2023/06/11 02:18:00;;;;;;;7.90;7.10;;;21.20;71.50;;;;;;5061701;28;20793;-72
2023/06/11 02:20:46;;;;;;;7.63;6.83;;;21.20;71.90;;;;;;5055660;28;20447;-72
2023/06/11 02:23:31;;;;;;;9.77;7.47;;;21.20;71.00;;;;;;5055428;28;20478;-72
2023/06/11 02:26:17;;;;;;;7.23;6.53;;;21.20;70.70;;;;;;5052487;28;20516;-74
2023/06/11 02:29:02;;;;;;;7.23;6.53;;;21.10;71.20;;;;;;5055759;28;20620;-72
2023/06/11 02:31:48;;;;;;;8.73;6.53;;;21.10;70.90;;;;;;5053352;28;20512;-72
2023/06/11 02:34:35;;;;;;;7.17;6.43;;;21.20;70.70;;;;;;5057307;28;20444;-72
2023/06/11 02:37:20;;;;;;;9.33;7.17;;;21.20;70.50;;;;;;5050629;28;20475;-73
2023/06/11 02:40:07;;;;;;;12.57;7.90;;;21.20;70.10;;;;;;5054097;28;20829;-74
2023/06/11 02:42:52;;;;;;;8.17;6.70;;;21.20;70.10;;;;;;5056998;28;20558;-73
2023/06/11 02:45:38;;;;;;;8.67;6.93;;;21.20;70.00;;;;;;5056275;28;21741;-72
2023/06/11 02:48:23;;;;;;;8.43;7.20;;;21.20;69.40;;;;;;5055172;28;20460;-75
2023/06/11 02:51:10;;;;;;;12.03;7.47;;;21.30;68.90;;;;;;5056012;28;20503;-72
2023/06/11 02:53:56;;;;;;;8.33;7.53;;;21.30;69.00;;;;;;5057398;28;20500;-72
2023/06/11 02:56:42;;;;;;;8.30;6.90;;;21.30;68.80;;;;;;5057156;28;20444;-74
2023/06/11 02:59:28;;;;;;;8.77;7.13;;;21.30;69.00;;;;;;5055394;28;20502;-73
2023/06/11 03:02:13;;;;;;;10.00;7.20;;;21.20;68.80;;;;;;5056157;28;20510;-72
2023/06/11 03:04:59;;;;;;;8.03;7.23;;;21.20;69.10;;;;;;5058134;28;20594;-72
2023/06/11 03:07:46;;;;;;;8.83;7.93;;;21.20;68.90;;;;;;5056354;28;20446;-72
2023/06/11 03:10:31;;;;;;;10.57;7.50;;;21.20;69.30;;;;;;5056248;28;20442;-73
2023/06/11 03:13:17;;;;;;;8.03;7.10;;;21.10;69.60;;;;;;5056207;28;20471;-72
2023/06/11 03:16:02;;;;;;;7.50;6.77;;;21.10;69.30;;;;;;5068055;28;20450;-73
2023/06/11 03:18:48;;;;;;;7.97;6.97;;;21.10;69.20;;;;;;5057158;28;20448;-72
2023/06/11 03:21:35;;;;;;;10.30;7.57;;;21.10;69.40;;;;;;5057230;28;20446;-73
2023/06/11 03:24:22;;;;;;;8.00;7.20;;;21.00;69.60;;;;;;5056271;28;20517;-73
2023/06/11 03:27:13;;;;;;;7.43;6.70;;;21.00;69.80;;;;;;5060602;28;20513;-72
2023/06/11 03:29:58;;;;;;;9.57;7.00;;;20.90;70.30;;;;;;5058202;28;20455;-72
2023/06/11 03:32:44;;;;;;;9.77;7.33;;;20.90;70.40;;;;;;5055371;28;21023;-72
2023/06/11 03:35:29;;;;;;;7.97;7.00;;;20.90;70.60;;;;;;5054500;28;20574;-73
2023/06/11 03:38:15;;;;;;;8.20;6.90;;;20.90;70.50;;;;;;5058910;28;20446;-72
2023/06/11 03:41:02;;;;;;;7.93;7.00;;;20.90;70.50;;;;;;5056624;28;20442;-73
2023/06/11 03:43:47;;;;;;;8.50;7.70;;;20.80;70.50;;;;;;5057362;28;20549;-72
2023/06/11 03:46:33;;;;;;;7.53;6.43;;;20.80;70.40;;;;;;5055699;28;20443;-72
2023/06/11 03:49:19;;;;;;;11.90;8.00;;;20.80;70.40;;;;;;5055667;28;20435;-72
2023/06/11 03:52:05;;;;;;;11.77;6.13;;;20.80;70.80;;;;;;5057620;28;20467;-72
2023/06/11 03:54:50;;;;;;;8.40;7.47;;;20.70;71.50;;;;;;5057236;28;20460;-72
2023/06/11 03:57:37;;;;;;;8.90;6.33;;;20.60;71.60;;;;;;5060669;28;21046;-72
2023/06/11 04:00:23;;;;;;;7.80;7.00;;;20.60;71.60;;;;;;5060707;28;20459;-72
2023/06/11 04:03:08;;;;;;;7.80;7.10;;;20.70;73.50;;;;;;5060259;28;20478;-72
2023/06/11 04:05:54;;;;;;;8.40;7.13;;;20.70;74.30;;;;;;5058404;28;20509;-74
2023/06/11 04:08:39;;;;;;;9.30;7.87;;;20.60;74.30;;;;;;5057441;28;20463;-72
2023/06/11 04:11:25;;;;;;;9.67;7.60;;;20.50;75.00;;;;;;5061504;28;20804;-74
2023/06/11 04:14:12;;;;;;;11.83;8.47;;;20.50;76.10;;;;;;5060020;28;20823;-72
2023/06/11 04:16:57;;;;;;;10.50;8.00;;;20.30;78.30;;;;;;5062465;28;20525;-71
2023/06/11 04:19:43;;;;;;;13.43;7.37;;;20.20;79.10;;;;;;5061532;28;20803;-72
2023/06/11 04:22:29;;;;;;;9.30;7.33;;;20.20;78.40;;;;;;5061777;28;20539;-71
2023/06/11 04:25:16;;;;;;;10.47;7.70;;;20.30;78.40;;;;;;5068563;28;20536;-72
2023/06/11 04:28:02;;;;;;;9.73;7.33;;;20.30;76.50;;;;;;5065490;28;20455;-72
2023/06/11 04:30:49;;;;;;;13.27;7.50;;;20.30;77.60;;;;;;5054440;28;20440;-72
2023/06/11 04:33:36;;;;;;;8.10;7.40;;;20.40;77.70;;;;;;5059146;28;20468;-73
2023/06/11 04:36:24;;;;;;;7.50;6.80;;;20.40;77.50;;;;;;5058801;28;20557;-72
2023/06/11 04:39:09;;;;;;;8.83;7.70;;;20.50;77.30;;;;;;5059437;28;20467;-72
2023/06/11 04:41:55;;;;;;;11.00;7.40;;;20.50;77.90;;;;;;5058969;28;20941;-72
2023/06/11 04:44:41;;;;;;;7.80;7.00;;;20.50;77.60;;;;;;5058121;28;20532;-73
2023/06/11 04:47:29;;;;;;;7.97;7.10;;;20.60;77.30;;;;;;5058233;28;20816;-72
2023/06/11 04:50:20;;;;;;;18.40;8.00;;;20.60;77.50;;;;;;5060340;28;21018;-73
2023/06/11 04:53:06;;;;;;;8.73;7.00;;;20.60;76.50;;;;;;5062907;28;20463;-74
2023/06/11 04:55:54;;;;;;;7.70;6.60;;;20.70;75.80;;;;;;5059524;28;20440;-72
2023/06/11 04:58:39;;;;;;;9.27;6.70;;;20.70;75.20;;;;;;5061238;28;20440;-72
2023/06/11 05:01:30;;;;;;;7.47;6.77;;;20.80;74.50;;;;;;5062187;28;20548;-72
2023/06/11 05:04:16;;;;;;;10.90;6.70;;;20.90;74.50;;;;;;5062204;28;20483;-72
2023/06/11 05:07:03;;;;;;;7.47;6.50;;;21.00;74.90;;;;;;5058493;28;20548;-72
2023/06/11 05:09:48;;;;;;;7.30;6.50;;;21.10;75.10;;;;;;5059624;28;20963;-72
2023/06/11 05:12:34;;;;;;;10.07;6.60;;;21.20;74.30;;;;;;5057609;28;20482;-72
2023/06/11 05:15:20;;;;;;;6.57;5.93;;;21.20;73.00;;;;;;5062135;28;20517;-72
2023/06/11 05:18:05;;;;;;;11.77;8.07;;;21.30;73.40;;;;;;5059693;28;20448;-74
2023/06/11 05:20:52;;;;;;;9.27;6.50;;;21.40;73.70;;;;;;5060851;28;20477;-73
2023/06/11 05:23:39;;;;;;;9.37;5.97;;;21.30;73.00;;;;;;5060788;28;20458;-72
2023/06/11 05:26:31;;;;;;;8.83;6.70;;;21.30;73.90;;;;;;5060683;28;20522;-72
2023/06/11 05:29:17;;;;;;;8.33;6.67;;;21.40;74.50;;;;;;5063080;28;20443;-72
2023/06/11 05:32:02;;;;;;;8.20;6.93;;;21.50;74.20;;;;;;5061519;28;20621;-73
2023/06/11 05:34:49;;;;;;;7.57;6.80;;;21.50;73.40;;;;;;5064282;28;20455;-72
2023/06/11 05:37:36;;;;;;;6.27;5.50;;;21.70;73.90;;;;;;5058580;28;20440;-72
2023/06/11 05:40:21;;;;;;;8.13;5.97;;;21.80;74.40;;;;;;5058330;28;20587;-74
2023/06/11 05:43:07;;;;;;;7.07;6.43;;;21.70;75.60;;;;;;5059239;28;20598;-73
2023/06/11 05:45:53;;;;;;;7.43;6.60;;;21.70;76.00;;;;;;5066053;28;20487;-72
2023/06/11 05:48:39;;;;;;;8.63;6.20;;;21.60;76.20;;;;;;5062283;28;20435;-74
2023/06/11 05:51:24;;;;;;;7.67;6.87;;;21.50;77.80;;;;;;5058138;28;20448;-73
2023/06/11 05:54:11;;;;;;;7.83;5.60;;;21.40;78.00;;;;;;5064561;28;21022;-72
2023/06/11 05:56:57;;;;;;;6.93;6.00;;;21.50;78.80;;;;;;5057772;28;20434;-72
2023/06/11 05:59:43;;;;;;;8.73;6.50;;;21.40;75.70;;;;;;5062101;28;20501;-73
2023/06/11 06:02:28;;;;;;;7.47;6.70;;;21.30;75.60;;;;;;5060739;28;21198;-72
2023/06/11 06:05:15;;;;;;;6.67;5.93;;;21.30;77.00;;;;;;5060648;28;20498;-73
2023/06/11 06:08:00;;;;;;;7.30;6.60;;;21.50;75.80;;;;;;5059093;28;20443;-72
2023/06/11 06:10:47;;;;;;;7.17;6.17;;;21.70;74.10;;;;;;5062613;28;20819;-72
2023/06/11 06:13:33;;;;;;;7.30;6.60;;;21.90;74.90;;;;;;5062047;28;20464;-74
2023/06/11 06:16:19;;;;;;;6.47;5.87;;;22.10;75.70;;;;;;5060981;28;20438;-72
2023/06/11 06:19:05;;;;;;;7.17;6.47;;;22.30;73.20;;;;;;5062128;28;20581;-72
2023/06/11 06:21:50;;;;;;;7.10;6.40;;;22.40;72.60;;;;;;5066068;23;20455;-87
2023/06/11 06:24:36;;;;;;;8.57;6.30;;;22.60;70.10;;;;;;5012776;28;20482;-86
2023/06/11 06:27:23;;;;;;;6.63;5.43;;;22.70;67.10;;;;;;5014765;28;20489;-86
2023/06/11 06:30:10;;;;;;;7.57;6.10;;;22.90;66.80;;;;;;4994731;28;20450;-87
2023/06/11 06:32:55;;;;;;;9.47;6.40;;;22.90;63.80;;;;;;4992549;28;20461;-87
2023/06/11 06:35:41;;;;;;;6.27;5.67;;;23.10;65.30;;;;;;4995826;28;20490;-87
2023/06/11 06:38:27;;;;;;;7.07;6.30;;;23.20;61.50;;;;;;4996045;28;20476;-86
2023/06/11 06:41:12;;;;;;;8.03;7.23;;;23.20;60.80;;;;;;4999067;28;20549;-86
2023/06/11 06:44:00;;;;;;;6.73;6.13;;;23.30;61.30;;;;;;4999558;28;21102;-87
2023/06/11 06:46:45;;;;;;;6.50;5.80;;;23.40;60.20;;;;;;4997028;28;20464;-87
2023/06/11 06:49:31;;;;;;;7.37;6.00;;;23.50;60.00;;;;;;5001334;28;20502;-87
2023/06/11 06:52:16;;;;;;;6.83;5.73;;;23.50;57.00;;;;;;4999438;28;21114;-86
2023/06/11 06:55:02;;;;;;;6.43;5.70;;;23.60;57.60;;;;;;5001138;28;20438;-86
2023/06/11 06:57:48;;;;;;;7.70;5.63;;;23.70;58.10;;;;;;4997955;28;20469;-87
2023/06/11 07:00:35;;;;;;;6.80;5.20;;;23.80;56.90;;;;;;4999806;28;20446;-86
2023/06/11 07:03:21;;;;;;;6.07;5.47;;;23.90;54.90;;;;;;4997408;28;21133;-86
2023/06/11 07:06:06;;;;;;;8.73;5.80;;;23.90;57.50;;;;;;4995971;28;20847;-86
2023/06/11 07:08:52;;;;;;;8.10;6.07;;;24.00;57.60;;;;;;4999124;28;20588;-86
2023/06/11 07:11:37;;;;;;;8.60;6.17;;;24.10;56.70;;;;;;4998479;28;20445;-86
2023/06/11 07:14:23;;;;;;;7.23;5.73;;;24.10;53.40;;;;;;4999707;28;20489;-87
2023/06/11 07:17:10;;;;;;;7.63;6.03;;;24.20;50.60;;;;;;4995545;28;20465;-87
2023/06/11 07:19:55;;;;;;;9.50;6.10;;;24.30;47.30;;;;;;4998524;28;20445;-87
2023/06/11 07:22:41;;;;;;;8.63;6.40;;;24.30;44.20;;;;;;4999534;28;20979;-87
2023/06/11 07:25:28;;;;;;;8.87;5.43;;;24.30;42.50;;;;;;5004038;28;20594;-87
2023/06/11 07:28:13;;;;;;;8.20;5.90;;;24.40;43.70;;;;;;5032220;22;20510;-73
2023/06/11 07:30:58;;;;;;;7.40;6.13;;;24.50;41.80;;;;;;5051427;28;20447;-73
2023/06/11 07:33:47;;;;;;;7.40;6.17;;;24.50;42.00;;;;;;5024405;28;20468;-74
2023/06/11 07:36:33;;;;;;;7.50;5.67;;;24.60;42.30;;;;;;5020965;28;20576;-73
2023/06/11 07:39:18;;;;;;;7.13;5.40;;;24.70;39.40;;;;;;5022772;28;21096;-72
2023/06/11 07:42:05;;;;;;;10.93;6.50;;;24.80;37.50;;;;;;5020163;28;20450;-72
2023/06/11 07:44:50;;;;;;;7.10;6.17;;;24.80;39.80;;;;;;5020395;28;20475;-72
2023/06/11 07:47:36;;;;;;;17.43;6.67;;;25.00;37.00;;;;;;5022017;28;20449;-73
2023/06/11 07:50:23;;;;;;;13.50;5.70;;;25.00;35.70;;;;;;5021074;28;20533;-73
2023/06/11 07:53:08;;;;;;;6.63;5.40;;;25.10;33.50;;;;;;5020393;28;20472;-72
2023/06/11 07:55:56;;;;;;;7.33;5.43;;;25.10;34.30;;;;;;5018448;28;20459;-73
2023/06/11 07:58:41;;;;;;;7.53;5.50;;;25.20;34.60;;;;;;5018065;28;21317;-72
2023/06/11 08:01:27;;;;;;;7.00;5.70;;;25.30;32.20;;;;;;5016705;28;20456;-73
2023/06/11 08:04:13;;;;;;;9.37;6.83;;;25.30;33.10;;;;;;5018506;28;20476;-73
2023/06/11 08:07:00;;;;;;;18.43;7.73;;;25.40;32.00;;;;;;5019167;28;21000;-72
2023/06/11 08:09:45;;;;;;;12.90;6.70;;;25.50;31.80;;;;;;5020236;28;20478;-73
2023/06/11 08:12:31;;;;;;;9.03;6.20;;;25.60;31.10;;;;;;5017874;28;20542;-74
2023/06/11 08:15:17;;;;;;;8.40;6.57;;;25.60;31.80;;;;;;5020169;28;20452;-71
2023/06/11 08:18:02;;;;;;;7.77;5.60;;;25.70;28.90;;;;;;5021290;28;20451;-72
2023/06/11 08:20:48;;;;;;;7.10;6.27;;;25.70;28.00;;;;;;5019100;28;20460;-73
2023/06/11 08:23:36;;;;;;;11.10;6.20;;;25.70;27.90;;;;;;5022417;28;20481;-72
2023/06/11 08:26:21;;;;;;;11.30;5.47;;;25.80;26.50;;;;;;5020497;28;20554;-72
2023/06/11 08:29:07;;;;;;;6.60;5.60;;;25.80;27.60;;;;;;5016990;28;20478;-73
2023/06/11 08:31:53;;;;;;;17.93;6.20;;;25.90;28.30;;;;;;5018752;28;20813;-71
2023/06/11 08:34:38;;;;;;;7.93;6.03;;;26.00;24.60;;;;;;5022651;28;20576;-73
2023/06/11 08:37:24;;;;;;;11.50;5.63;;;26.10;23.70;;;;;;5016302;28;20446;-72
2023/06/11 08:40:13;;;;;;;10.50;7.07;;;26.10;23.00;;;;;;5017987;28;20448;-73
2023/06/11 08:42:59;;;;;;;10.87;5.93;;;26.10;24.00;;;;;;5009186;28;20834;-72
2023/06/11 08:45:46;;;;;;;9.70;6.53;;;26.20;22.80;;;;;;5015156;28;20988;-72
2023/06/11 08:48:36;;;;;;;9.60;5.73;;;26.30;21.10;;;;;;5017483;28;20592;-71
2023/06/11 08:51:22;;;;;;;8.20;5.80;;;26.30;22.30;;;;;;5016100;28;20494;-72
2023/06/11 08:54:09;;;;;;;7.93;6.03;;;26.30;20.40;;;;;;5020583;28;20611;-73
2023/06/11 08:56:56;;;;;;;12.70;6.70;;;26.40;20.90;;;;;;5016960;28;20521;-72
2023/06/11 08:59:41;;;;;;;7.57;5.87;;;26.40;19.90;;;;;;5020907;28;20567;-72
2023/06/11 09:02:27;;;;;;;7.40;5.27;;;26.50;20.00;;;;;;5016995;28;20959;-73
2023/06/11 09:05:12;;;;;;;7.60;5.63;;;26.40;19.70;;;;;;5017097;28;20471;-72
2023/06/11 09:07:58;;;;;;;9.03;5.80;;;26.40;19.20;;;;;;5018165;28;20440;-72
2023/06/11 09:10:51;;;;;;;9.63;4.90;;;26.50;18.00;;;;;;5017528;28;20458;-72
2023/06/11 09:13:41;;;;;;;6.70;5.20;;;26.60;17.50;;;;;;5018221;28;20582;-72
2023/06/11 09:16:26;;;;;;;9.37;6.27;;;26.60;18.20;;;;;;5018581;28;20497;-72
2023/06/11 09:19:13;;;;;;;6.00;4.90;;;26.70;17.60;;;;;;5015575;28;20933;-72
2023/06/11 09:21:58;;;;;;;7.50;5.20;;;26.80;18.10;;;;;;5016503;28;20453;-72
2023/06/11 09:24:51;;;;;;;10.13;5.63;;;26.80;17.60;;;;;;5017867;28;20474;-72
2023/06/11 09:27:37;;;;;;;10.07;5.30;;;26.90;18.10;;;;;;5013927;28;20456;-72
2023/06/11 09:30:24;;;;;;;5.90;5.20;;;27.10;18.30;;;;;;5018775;28;20993;-72
2023/06/11 09:33:17;;;;;;;8.57;4.70;;;27.10;16.10;;;;;;5019798;28;20467;-72
2023/06/11 09:36:02;;;;;;;15.20;5.17;;;27.10;14.30;;;;;;5016496;28;20456;-72
2023/06/11 09:38:48;;;;;;;7.47;5.50;;;27.10;15.70;;;;;;5019556;28;20858;-73
2023/06/11 09:41:34;;;;;;;9.00;5.53;;;27.20;16.10;;;;;;5019639;28;20448;-72
2023/06/11 09:44:20;;;;;;;8.97;5.23;;;27.30;14.30;;;;;;5018553;28;20538;-73
2023/06/11 09:47:07;;;;;;;6.83;4.77;;;27.30;14.50;;;;;;5018505;28;20535;-73
2023/06/11 09:49:54;;;;;;;9.53;5.80;;;27.30;15.90;;;;;;5026387;28;20446;-72
2023/06/11 09:52:41;;;;;;;11.20;5.87;;;27.40;16.50;;;;;;5017435;28;20468;-73
2023/06/11 09:55:26;;;;;;;9.33;5.60;;;27.50;14.70;;;;;;5013594;28;20592;-71
2023/06/11 09:58:13;;;;;;;6.50;4.90;;;27.50;15.30;;;;;;5020270;28;20531;-72
2023/06/11 10:01:00;;;;;;;6.63;5.17;;;27.50;16.50;;;;;;5019282;28;20991;-73
2023/06/11 10:03:47;;;;;;;9.70;5.53;;;27.60;15.40;;;;;;5016049;28;20471;-72
2023/06/11 10:06:38;;;;;;;8.23;5.73;;;27.70;16.30;;;;;;5015302;28;20568;-72
2023/06/11 10:09:24;;;;;;;6.60;5.57;;;27.80;17.40;;;;;;5017040;28;20458;-72
2023/06/11 10:12:10;;;;;;;7.63;5.87;;;27.90;16.10;;;;;;5020095;28;20835;-73
2023/06/11 10:14:56;;;;;;;6.27;5.37;;;27.90;15.50;;;;;;5018909;28;20535;-73
2023/06/11 10:17:47;;;;;;;10.67;5.67;;;28.00;14.60;;;;;;5018246;28;20452;-72
2023/06/11 10:20:35;;;;;;;8.47;4.90;;;28.00;14.90;;;;;;5015693;28;20823;-72
2023/06/11 10:23:20;;;;;;;12.90;5.80;;;28.00;13.50;;;;;;5019205;28;20473;-72
2023/06/11 10:26:07;;;;;;;7.23;5.43;;;28.00;14.30;;;;;;5023755;28;20551;-73
2023/06/11 10:28:56;;;;;;;7.13;5.13;;;28.10;15.50;;;;;;5019480;28;20448;-73
2023/06/11 10:31:43;;;;;;;10.70;5.00;;;28.10;15.10;;;;;;5018512;28;20457;-72
2023/06/11 10:34:39;;;;;;;6.73;5.97;;;28.20;14.80;;;;;;5016977;28;21111;-72
2023/06/11 10:37:31;;;;;;;11.43;5.40;;;28.30;14.60;;;;;;5016220;28;21028;-72
2023/06/11 10:40:17;;;;;;;5.93;5.33;;;28.40;14.20;;;;;;5017213;28;20461;-73
2023/06/11 10:43:04;;;;;;;15.07;6.67;;;28.40;13.20;;;;;;5015421;28;20556;-73
2023/06/11 10:46:02;;;;;;;7.30;6.50;;;28.40;13.00;;;;;;5016919;28;20583;-73
2023/06/11 10:48:51;;;;;;;6.03;5.07;;;28.30;14.10;;;;;;5015836;28;21122;-72
2023/06/11 10:51:38;;;;;;;6.67;5.10;;;28.40;13.60;;;;;;5016293;28;20489;-73
2023/06/11 10:54:32;;;;;;;6.30;5.10;;;28.40;13.50;;;;;;5013803;28;20448;-73
2023/06/11 10:57:18;;;;;;;7.67;5.60;;;28.40;10.90;;;;;;5015717;28;20451;-73
2023/06/11 11:00:07;;;;;;;7.03;5.77;;;28.40;14.30;;;;;;5017936;28;20473;-72
2023/06/11 11:02:52;;;;;;;8.10;5.27;;;28.50;13.80;;;;;;5015708;28;20611;-73
2023/06/11 11:05:41;;;;;;;9.53;6.00;;;28.60;11.30;;;;;;5018830;28;20452;-72
2023/06/11 11:08:27;;;;;;;8.03;5.47;;;28.60;12.40;;;;;;5021212;28;20465;-73
2023/06/11 11:11:14;;;;;;;12.30;6.13;;;28.60;12.90;;;;;;5019431;28;21032;-72
2023/06/11 11:14:00;;;;;;;8.17;5.90;;;28.60;14.00;;;;;;5017795;28;20477;-72
2023/06/11 11:16:47;;;;;;;8.03;6.70;;;28.60;14.70;;;;;;5019982;28;20772;-73
2023/06/11 11:19:34;;;;;;;12.17;6.13;;;28.70;13.70;;;;;;5019866;28;20495;-73
2023/06/11 11:22:19;;;;;;;8.43;6.20;;;28.80;12.50;;;;;;5019435;28;20622;-73
2023/06/11 11:25:07;;;;;;;7.17;5.63;;;28.90;12.30;;;;;;5018143;28;20566;-73
2023/06/11 11:27:54;;;;;;;9.27;6.50;;;29.00;13.80;;;;;;5017427;28;20607;-73
2023/06/11 11:30:40;;;;;;;9.47;6.33;;;28.90;13.10;;;;;;5025749;28;20541;-73
2023/06/11 11:33:25;;;;;;;6.87;5.63;;;29.00;10.80;;;;;;5018706;28;21017;-73
2023/06/11 11:36:12;;;;;;;9.63;5.80;;;29.00;12.90;;;;;;5021916;28;20454;-72
2023/06/11 11:38:58;;;;;;;7.00;5.00;;;29.10;11.60;;;;;;5017253;28;20579;-73
2023/06/11 11:41:48;;;;;;;21.00;5.40;;;29.10;12.90;;;;;;5018076;28;20447;-73
2023/06/11 11:44:41;;;;;;;7.27;5.33;;;29.20;12.10;;;;;;5017844;28;20455;-72
2023/06/11 11:47:28;;;;;;;5.93;5.33;;;29.20;12.50;;;;;;5018234;28;20471;-73
2023/06/11 11:50:22;;;;;;;6.70;5.27;;;29.30;12.10;;;;;;5018110;28;21387;-72
2023/06/11 11:53:12;;;;;;;9.63;5.50;;;29.30;13.10;;;;;;5018264;28;20472;-72
2023/06/11 11:55:57;;;;;;;7.73;5.97;;;29.40;12.40;;;;;;5019510;28;20936;-72
2023/06/11 11:58:44;;;;;;;7.20;5.30;;;29.50;11.40;;;;;;5018660;28;20453;-73
2023/06/11 12:01:36;;;;;;;6.17;5.30;;;29.60;12.70;;;;;;5021708;28;20629;-73
2023/06/11 12:04:22;;;;;;;9.57;5.13;;;29.50;10.20;;;;;;5019249;28;20456;-73
2023/06/11 12:07:08;;;;;;;6.50;5.70;;;29.60;11.70;;;;;;5017133;28;21056;-73
2023/06/11 12:09:54;;;;;;;9.07;6.00;;;29.60;9.50;;;;;;5019154;28;20460;-73
2023/06/11 12:12:39;;;;;;;7.90;5.80;;;29.80;10.00;;;;;;5018509;28;20527;-73
2023/06/11 12:15:25;;;;;;;6.53;5.43;;;29.90;10.90;;;;;;5018357;28;21070;-72
2023/06/11 12:18:12;;;;;;;8.40;5.80;;;29.90;11.30;;;;;;5016389;28;20451;-73
2023/06/11 12:20:58;;;;;;;6.23;5.60;;;30.00;11.70;;;;;;5018626;28;20467;-72
2023/06/11 12:23:44;;;;;;;10.57;6.40;;;30.00;12.00;;;;;;5019483;28;20510;-73
2023/06/11 12:26:29;;;;;;;8.63;6.23;;;30.10;10.20;;;;;;5022679;28;20465;-73
2023/06/11 12:29:15;;;;;;;8.60;6.23;;;30.10;10.20;;;;;;5022069;28;20849;-71
2023/06/11 12:32:01;;;;;;;8.50;5.50;;;30.00;10.80;;;;;;5018000;28;20457;-70
2023/06/11 12:34:48;;;;;;;8.33;6.37;;;30.10;12.40;;;;;;5020933;28;20462;-71
2023/06/11 12:37:34;;;;;;;9.47;6.80;;;30.20;12.00;;;;;;5019254;28;20443;-73
2023/06/11 12:40:19;;;;;;;10.33;6.37;;;30.30;12.00;;;;;;5018503;28;20502;-72
2023/06/11 12:43:05;;;;;;;9.20;6.73;;;30.50;12.90;;;;;;5017348;28;20527;-73
2023/06/11 12:45:50;;;;;;;13.73;7.57;;;30.60;12.10;;;;;;5017812;28;21078;-71
2023/06/11 12:48:36;;;;;;;8.57;6.10;;;30.70;10.60;;;;;;5018263;28;22724;-71
2023/06/11 12:51:23;;;;;;;8.33;6.20;;;30.70;10.60;;;;;;5016990;28;20458;-72
2023/06/11 12:54:10;;;;;;;7.33;6.17;;;30.70;9.30;;;;;;5014591;28;20473;-73
2023/06/11 12:56:55;;;;;;;9.87;6.30;;;30.70;10.60;;;;;;5014183;28;20588;-73
2023/06/11 12:59:41;;;;;;;8.70;5.70;;;30.70;11.50;;;;;;5019789;28;20456;-74
2023/06/11 13:02:26;;;;;;;7.10;5.97;;;30.80;11.30;;;;;;5018875;28;20474;-73
2023/06/11 13:05:11;;;;;;;8.53;6.07;;;30.80;10.20;;;;;;5020181;28;20874;-73
2023/06/11 13:07:58;;;;;;;9.83;5.90;;;30.90;10.70;;;;;;5017212;28;20582;-73
2023/06/11 13:10:44;;;;;;;9.80;5.77;;;30.90;8.20;;;;;;5020251;28;20475;-71
2023/06/11 13:13:30;;;;;;;13.73;6.00;;;31.00;10.80;;;;;;5020892;28;20532;-72
2023/06/11 13:16:15;;;;;;;6.10;5.50;;;31.10;9.80;;;;;;5019769;28;20571;-73
2023/06/11 13:19:02;;;;;;;8.87;5.37;;;31.00;7.60;;;;;;5021317;28;20598;-73
2023/06/11 13:21:48;;;;;;;11.67;5.00;;;31.10;9.60;;;;;;5021416;28;20539;-73
2023/06/11 13:24:35;;;;;;;8.50;5.30;;;31.20;9.90;;;;;;5025291;28;20448;-73
2023/06/11 13:27:20;;;;;;;7.60;6.43;;;31.20;8.70;;;;;;5033357;28;20986;-73
2023/06/11 13:30:09;;;;;;;7.63;5.47;;;31.30;8.90;;;;;;5019867;28;20530;-72
2023/06/11 13:32:54;;;;;;;7.37;5.70;;;31.30;8.90;;;;;;5016745;28;20472;-73
2023/06/11 13:35:40;;;;;;;7.00;5.63;;;31.50;9.10;;;;;;5021970;28;20505;-74
2023/06/11 13:38:26;;;;;;;6.97;5.07;;;31.60;8.80;;;;;;5063645;22;20503;-73
2023/06/11 13:41:12;;;;;;;7.70;5.73;;;31.80;8.80;;;;;;5053330;28;20549;-73
2023/06/11 13:43:58;;;;;;;7.13;6.10;;;31.90;8.60;;;;;;5053058;28;20439;-73
2023/06/11 13:46:44;;;;;;;7.63;5.10;;;32.00;7.90;;;;;;5050438;28;20469;-73
2023/06/11 13:49:29;;;;;;;7.17;5.03;;;31.90;5.80;;;;;;5038376;28;21008;-73
2023/06/11 13:52:15;;;;;;;6.27;5.60;;;31.80;6.50;;;;;;5035032;28;20442;-73
2023/06/11 13:55:00;;;;;;;6.30;5.30;;;31.90;7.60;;;;;;5036723;28;20630;-73
2023/06/11 13:57:47;;;;;;;7.60;5.60;;;31.90;6.00;;;;;;5035583;28;20483;-72
2023/06/11 14:00:33;;;;;;;9.83;6.30;;;31.90;5.50;;;;;;5038535;28;20444;-73
2023/06/11 14:03:19;;;;;;;6.80;5.53;;;31.90;6.10;;;;;;5038999;28;20953;-73
2023/06/11 14:06:05;;;;;;;7.07;5.20;;;32.00;5.90;;;;;;5034473;28;20467;-73
2023/06/11 14:08:50;;;;;;;5.97;5.37;;;31.80;4.60;;;;;;5039808;28;20486;-73
2023/06/11 14:11:36;;;;;;;5.50;4.53;;;31.70;4.70;;;;;;5040153;28;20534;-73
2023/06/11 14:14:23;;;;;;;6.30;4.77;;;31.80;7.30;;;;;;5041286;28;20524;-73
2023/06/11 14:17:09;;;;;;;7.80;4.97;;;31.70;4.70;;;;;;5036221;28;20624;-72
2023/06/11 14:19:54;;;;;;;8.00;5.63;;;31.80;5.80;;;;;;5037878;28;21034;-73
2023/06/11 14:22:40;;;;;;;6.50;4.93;;;31.90;5.10;;;;;;5050807;28;20448;-73
2023/06/11 14:25:25;;;;;;;5.90;5.00;;;31.80;4.40;;;;;;5037227;28;20852;-73